sensor_id;sensor_type;location;lat;lon;timestamp;temperature;humidity
52125;DHT22;38119;52.710;6.398;2023-03-01T00:02:13;0.50;99.90
52125;DHT22;38119;52.710;6.398;2023-03-01T00:04:38;0.50;99.90
52125;DHT22;38119;52.710;6.398;2023-03-01T00:07:04;0.50;99.90
52125;DHT22;38119;52.710;6.398;2023-03-01T00:09:30;0.50;99.90
52125;DHT22;38119;52.710;6.398;2023-03-01T00:11:55;0.50;99.90
52125;DHT22;38119;52.710;6.398;2023-03-01T00:14:21;0.50;99.90
52125;DHT22;38119;52.710;6.398;2023-03-01T00:16:46;0.50;99.90
52125;DHT22;38119;52.710;6.398;2023-03-01T00:19:14;0.50;99.90
52125;DHT22;38119;52.710;6.398;2023-03-01T00:21:40;0.50;99.90
52125;DHT22;38119;52.710;6.398;2023-03-01T00:24:06;0.50;99.90
52125;DHT22;38119;52.710;6.398;2023-03-01T00:26:32;0.40;99.90
52125;DHT22;38119;52.710;6.398;2023-03-01T00:28:58;0.40;99.90
52125;DHT22;38119;52.710;6.398;2023-03-01T00:31:29;0.40;99.90
52125;DHT22;38119;52.710;6.398;2023-03-01T00:33:57;0.40;99.90
52125;DHT22;38119;52.710;6.398;2023-03-01T00:36:28;0.30;99.90
52125;DHT22;38119;52.710;6.398;2023-03-01T00:38:55;0.30;99.90
52125;DHT22;38119;52.710;6.398;2023-03-01T00:41:21;0.30;99.90
52125;DHT22;38119;52.710;6.398;2023-03-01T00:43:52;0.30;99.90
52125;DHT22;38119;52.710;6.398;2023-03-01T00:46:21;0.30;99.90
52125;DHT22;38119;52.710;6.398;2023-03-01T00:48:47;0.30;99.90
52125;DHT22;38119;52.710;6.398;2023-03-01T00:51:21;0.30;99.90
52125;DHT22;38119;52.710;6.398;2023-03-01T00:53:50;0.30;99.90
52125;DHT22;38119;52.710;6.398;2023-03-01T00:56:16;0.30;99.90
52125;DHT22;38119;52.710;6.398;2023-03-01T00:58:42;0.30;99.90
52125;DHT22;38119;52.710;6.398;2023-03-01T01:01:14;0.30;99.90
52125;DHT22;38119;52.710;6.398;2023-03-01T01:03:55;0.30;99.90
52125;DHT22;38119;52.710;6.398;2023-03-01T01:06:24;0.30;99.90
52125;DHT22;38119;52.710;6.398;2023-03-01T01:08:51;0.30;99.90
52125;DHT22;38119;52.710;6.398;2023-03-01T01:11:17;0.30;99.90
52125;DHT22;38119;52.710;6.398;2023-03-01T01:13:44;0.20;99.90
52125;DHT22;38119;52.710;6.398;2023-03-01T01:16:10;0.20;99.90
52125;DHT22;38119;52.710;6.398;2023-03-01T01:18:36;0.20;99.90
52125;DHT22;38119;52.710;6.398;2023-03-01T01:21:12;0.20;99.90
52125;DHT22;38119;52.710;6.398;2023-03-01T01:23:40;0.20;99.90
52125;DHT22;38119;52.710;6.398;2023-03-01T01:26:21;0.20;99.90
52125;DHT22;38119;52.710;6.398;2023-03-01T01:28:48;0.10;99.90
52125;DHT22;38119;52.710;6.398;2023-03-01T01:31:14;0.20;99.90
52125;DHT22;38119;52.710;6.398;2023-03-01T01:33:40;0.10;99.90
52125;DHT22;38119;52.710;6.398;2023-03-01T01:36:07;0.10;99.90
52125;DHT22;38119;52.710;6.398;2023-03-01T01:38:34;0.00;99.90
52125;DHT22;38119;52.710;6.398;2023-03-01T01:41:00;0.00;99.90
52125;DHT22;38119;52.710;6.398;2023-03-01T01:43:29;0.00;99.90
52125;DHT22;38119;52.710;6.398;2023-03-01T01:46:02;0.00;99.90
52125;DHT22;38119;52.710;6.398;2023-03-01T01:48:37;0.00;99.90
52125;DHT22;38119;52.710;6.398;2023-03-01T01:51:09;0.00;99.90
52125;DHT22;38119;52.710;6.398;2023-03-01T01:53:37;-0.10;99.90
52125;DHT22;38119;52.710;6.398;2023-03-01T01:56:03;-0.10;99.90
52125;DHT22;38119;52.710;6.398;2023-03-01T01:58:32;-0.10;99.90
52125;DHT22;38119;52.710;6.398;2023-03-01T02:00:57;-0.10;99.90
52125;DHT22;38119;52.710;6.398;2023-03-01T02:03:26;-0.10;99.90
52125;DHT22;38119;52.710;6.398;2023-03-01T02:06:04;-0.10;99.90
52125;DHT22;38119;52.710;6.398;2023-03-01T02:08:35;-0.10;99.90
52125;DHT22;38119;52.710;6.398;2023-03-01T02:11:02;-0.10;99.90
52125;DHT22;38119;52.710;6.398;2023-03-01T02:13:34;-0.20;99.90
52125;DHT22;38119;52.710;6.398;2023-03-01T02:16:03;-0.20;99.90
52125;DHT22;38119;52.710;6.398;2023-03-01T02:18:30;-0.20;99.90
52125;DHT22;38119;52.710;6.398;2023-03-01T02:21:26;-0.20;99.90
52125;DHT22;38119;52.710;6.398;2023-03-01T02:23:53;-0.20;99.90
52125;DHT22;38119;52.710;6.398;2023-03-01T02:29:05;-0.30;99.90
52125;DHT22;38119;52.710;6.398;2023-03-01T02:31:31;-0.30;99.90
52125;DHT22;38119;52.710;6.398;2023-03-01T02:34:20;-0.30;99.90
52125;DHT22;38119;52.710;6.398;2023-03-01T02:37:08;-0.30;99.90
52125;DHT22;38119;52.710;6.398;2023-03-01T02:39:40;-0.30;99.90
52125;DHT22;38119;52.710;6.398;2023-03-01T02:42:13;-0.40;99.90
52125;DHT22;38119;52.710;6.398;2023-03-01T02:44:39;-0.40;99.90
52125;DHT22;38119;52.710;6.398;2023-03-01T02:47:05;-0.40;99.90
52125;DHT22;38119;52.710;6.398;2023-03-01T02:49:33;-0.40;99.90
52125;DHT22;38119;52.710;6.398;2023-03-01T02:55:08;-0.40;99.90
52125;DHT22;38119;52.710;6.398;2023-03-01T02:57:37;-0.50;99.90
52125;DHT22;38119;52.710;6.398;2023-03-01T03:00:11;-0.50;99.90
52125;DHT22;38119;52.710;6.398;2023-03-01T03:02:45;-0.60;99.90
52125;DHT22;38119;52.710;6.398;2023-03-01T03:05:26;-0.60;99.90
52125;DHT22;38119;52.710;6.398;2023-03-01T03:07:53;-0.60;99.90
52125;DHT22;38119;52.710;6.398;2023-03-01T03:10:28;-0.60;99.90
52125;DHT22;38119;52.710;6.398;2023-03-01T03:13:02;-0.60;99.90
52125;DHT22;38119;52.710;6.398;2023-03-01T03:15:29;-0.60;99.90
52125;DHT22;38119;52.710;6.398;2023-03-01T03:17:56;-0.60;99.90
52125;DHT22;38119;52.710;6.398;2023-03-01T03:20:26;-0.60;99.90
52125;DHT22;38119;52.710;6.398;2023-03-01T03:22:53;-0.70;99.90
52125;DHT22;38119;52.710;6.398;2023-03-01T03:25:20;-0.70;99.90
52125;DHT22;38119;52.710;6.398;2023-03-01T03:27:48;-0.70;99.90
52125;DHT22;38119;52.710;6.398;2023-03-01T03:30:19;-0.70;99.90
52125;DHT22;38119;52.710;6.398;2023-03-01T03:32:46;-0.80;99.90
52125;DHT22;38119;52.710;6.398;2023-03-01T03:38:05;-0.80;99.90
52125;DHT22;38119;52.710;6.398;2023-03-01T03:40:39;-0.80;99.90
52125;DHT22;38119;52.710;6.398;2023-03-01T03:43:14;-0.90;99.90
52125;DHT22;38119;52.710;6.398;2023-03-01T03:45:40;-0.90;99.90
52125;DHT22;38119;52.710;6.398;2023-03-01T03:48:09;-0.90;99.90
52125;DHT22;38119;52.710;6.398;2023-03-01T03:50:36;-1.00;99.90
52125;DHT22;38119;52.710;6.398;2023-03-01T03:53:04;-1.00;99.90
52125;DHT22;38119;52.710;6.398;2023-03-01T03:55:30;-1.00;99.90
52125;DHT22;38119;52.710;6.398;2023-03-01T03:57:58;-1.00;99.90
52125;DHT22;38119;52.710;6.398;2023-03-01T04:00:27;-1.00;99.90
52125;DHT22;38119;52.710;6.398;2023-03-01T04:02:53;-1.00;99.90
52125;DHT22;38119;52.710;6.398;2023-03-01T04:05:22;-1.00;99.90
52125;DHT22;38119;52.710;6.398;2023-03-01T04:07:48;-1.10;99.90
52125;DHT22;38119;52.710;6.398;2023-03-01T04:10:16;-1.10;99.90
52125;DHT22;38119;52.710;6.398;2023-03-01T04:12:42;-1.10;99.90
52125;DHT22;38119;52.710;6.398;2023-03-01T04:15:10;-1.10;99.90
52125;DHT22;38119;52.710;6.398;2023-03-01T04:17:46;-1.10;99.90
52125;DHT22;38119;52.710;6.398;2023-03-01T04:20:23;-1.20;99.90
52125;DHT22;38119;52.710;6.398;2023-03-01T04:23:00;-1.20;99.90
52125;DHT22;38119;52.710;6.398;2023-03-01T04:25:40;-1.20;99.90
52125;DHT22;38119;52.710;6.398;2023-03-01T04:28:07;-1.20;99.90
52125;DHT22;38119;52.710;6.398;2023-03-01T04:30:35;-1.30;99.90
52125;DHT22;38119;52.710;6.398;2023-03-01T04:33:05;-1.30;99.90
52125;DHT22;38119;52.710;6.398;2023-03-01T04:35:31;-1.30;99.90
52125;DHT22;38119;52.710;6.398;2023-03-01T04:37:57;-1.40;99.90
52125;DHT22;38119;52.710;6.398;2023-03-01T04:40:23;-1.40;99.90
52125;DHT22;38119;52.710;6.398;2023-03-01T04:42:48;-1.40;99.90
52125;DHT22;38119;52.710;6.398;2023-03-01T04:45:14;-1.40;99.90
52125;DHT22;38119;52.710;6.398;2023-03-01T04:47:44;-1.50;99.90
52125;DHT22;38119;52.710;6.398;2023-03-01T04:50:13;-1.50;99.90
52125;DHT22;38119;52.710;6.398;2023-03-01T04:52:39;-1.60;99.90
52125;DHT22;38119;52.710;6.398;2023-03-01T04:55:05;-1.60;99.90
52125;DHT22;38119;52.710;6.398;2023-03-01T04:57:31;-1.70;99.90
52125;DHT22;38119;52.710;6.398;2023-03-01T04:59:57;-1.60;99.90
52125;DHT22;38119;52.710;6.398;2023-03-01T05:02:23;-1.70;99.90
52125;DHT22;38119;52.710;6.398;2023-03-01T05:04:49;-1.70;99.90
52125;DHT22;38119;52.710;6.398;2023-03-01T05:07:14;-1.80;99.90
52125;DHT22;38119;52.710;6.398;2023-03-01T05:09:46;-1.80;99.90
52125;DHT22;38119;52.710;6.398;2023-03-01T05:12:13;-1.80;99.90
52125;DHT22;38119;52.710;6.398;2023-03-01T05:14:39;-1.80;99.90
52125;DHT22;38119;52.710;6.398;2023-03-01T05:17:04;-1.80;99.90
52125;DHT22;38119;52.710;6.398;2023-03-01T05:19:31;-1.80;99.90
52125;DHT22;38119;52.710;6.398;2023-03-01T05:21:57;-1.80;99.90
52125;DHT22;38119;52.710;6.398;2023-03-01T05:24:31;-1.90;99.90
52125;DHT22;38119;52.710;6.398;2023-03-01T05:26:58;-1.90;99.90
52125;DHT22;38119;52.710;6.398;2023-03-01T05:29:25;-1.90;99.90
52125;DHT22;38119;52.710;6.398;2023-03-01T05:31:55;-2.00;99.90
52125;DHT22;38119;52.710;6.398;2023-03-01T05:34:25;-2.00;99.90
52125;DHT22;38119;52.710;6.398;2023-03-01T05:36:51;-2.00;99.90
52125;DHT22;38119;52.710;6.398;2023-03-01T05:39:20;-2.10;99.90
52125;DHT22;38119;52.710;6.398;2023-03-01T05:41:46;-2.10;99.90
52125;DHT22;38119;52.710;6.398;2023-03-01T05:44:13;-2.10;99.90
52125;DHT22;38119;52.710;6.398;2023-03-01T05:46:38;-2.10;99.90
52125;DHT22;38119;52.710;6.398;2023-03-01T05:49:04;-2.10;99.90
52125;DHT22;38119;52.710;6.398;2023-03-01T05:51:30;-2.10;99.90
52125;DHT22;38119;52.710;6.398;2023-03-01T05:53:56;-2.10;99.90
52125;DHT22;38119;52.710;6.398;2023-03-01T05:56:21;-2.10;99.90
52125;DHT22;38119;52.710;6.398;2023-03-01T05:58:50;-2.10;99.90
52125;DHT22;38119;52.710;6.398;2023-03-01T06:01:16;-2.10;99.90
52125;DHT22;38119;52.710;6.398;2023-03-01T06:03:42;-2.10;99.90
52125;DHT22;38119;52.710;6.398;2023-03-01T06:06:07;-2.10;99.90
52125;DHT22;38119;52.710;6.398;2023-03-01T06:08:33;-2.10;99.90
52125;DHT22;38119;52.710;6.398;2023-03-01T06:10:59;-2.10;99.90
52125;DHT22;38119;52.710;6.398;2023-03-01T06:13:24;-2.10;99.90
52125;DHT22;38119;52.710;6.398;2023-03-01T06:15:50;-2.10;99.90
52125;DHT22;38119;52.710;6.398;2023-03-01T06:18:17;-1.20;99.90
52125;DHT22;38119;52.710;6.398;2023-03-01T06:20:42;-2.10;99.90
52125;DHT22;38119;52.710;6.398;2023-03-01T06:23:08;-2.00;99.90
52125;DHT22;38119;52.710;6.398;2023-03-01T06:25:33;-2.10;99.90
52125;DHT22;38119;52.710;6.398;2023-03-01T06:27:59;-2.10;99.90
52125;DHT22;38119;52.710;6.398;2023-03-01T06:30:25;-2.00;99.90
52125;DHT22;38119;52.710;6.398;2023-03-01T06:32:52;-2.10;99.90
52125;DHT22;38119;52.710;6.398;2023-03-01T06:35:18;-2.00;99.90
52125;DHT22;38119;52.710;6.398;2023-03-01T06:37:46;-2.00;99.90
52125;DHT22;38119;52.710;6.398;2023-03-01T06:40:12;-2.00;99.90
52125;DHT22;38119;52.710;6.398;2023-03-01T06:42:41;-1.90;99.90
52125;DHT22;38119;52.710;6.398;2023-03-01T06:45:08;-2.00;99.90
52125;DHT22;38119;52.710;6.398;2023-03-01T06:47:34;-1.90;99.90
52125;DHT22;38119;52.710;6.398;2023-03-01T06:50:00;-1.90;99.90
52125;DHT22;38119;52.710;6.398;2023-03-01T06:52:26;-1.80;99.90
52125;DHT22;38119;52.710;6.398;2023-03-01T06:54:51;-1.80;99.90
52125;DHT22;38119;52.710;6.398;2023-03-01T06:57:17;-1.80;99.90
52125;DHT22;38119;52.710;6.398;2023-03-01T06:59:43;-1.70;99.90
52125;DHT22;38119;52.710;6.398;2023-03-01T07:02:12;-1.70;99.90
52125;DHT22;38119;52.710;6.398;2023-03-01T07:04:38;-1.60;99.90
52125;DHT22;38119;52.710;6.398;2023-03-01T07:07:04;-1.50;99.90
52125;DHT22;38119;52.710;6.398;2023-03-01T07:09:30;-1.60;99.90
52125;DHT22;38119;52.710;6.398;2023-03-01T07:11:56;-1.50;99.90
52125;DHT22;38119;52.710;6.398;2023-03-01T07:14:22;-1.40;99.90
52125;DHT22;38119;52.710;6.398;2023-03-01T07:16:50;-1.40;99.90
52125;DHT22;38119;52.710;6.398;2023-03-01T07:19:15;-1.40;99.90
52125;DHT22;38119;52.710;6.398;2023-03-01T07:21:41;-1.30;99.90
52125;DHT22;38119;52.710;6.398;2023-03-01T07:24:07;-1.30;99.90
52125;DHT22;38119;52.710;6.398;2023-03-01T07:26:33;-1.20;99.90
52125;DHT22;38119;52.710;6.398;2023-03-01T07:29:00;-1.30;99.90
52125;DHT22;38119;52.710;6.398;2023-03-01T07:31:26;-1.20;99.90
52125;DHT22;38119;52.710;6.398;2023-03-01T07:33:54;-1.20;99.90
52125;DHT22;38119;52.710;6.398;2023-03-01T07:36:20;-1.10;99.90
52125;DHT22;38119;52.710;6.398;2023-03-01T07:38:46;-1.10;99.90
52125;DHT22;38119;52.710;6.398;2023-03-01T07:41:12;-1.00;99.90
52125;DHT22;38119;52.710;6.398;2023-03-01T07:43:37;-1.00;99.90
52125;DHT22;38119;52.710;6.398;2023-03-01T07:46:04;-1.00;99.90
52125;DHT22;38119;52.710;6.398;2023-03-01T07:48:31;-0.90;99.90
52125;DHT22;38119;52.710;6.398;2023-03-01T07:51:01;-0.90;99.90
52125;DHT22;38119;52.710;6.398;2023-03-01T07:53:27;-0.90;99.90
52125;DHT22;38119;52.710;6.398;2023-03-01T07:56:07;-0.80;99.90
52125;DHT22;38119;52.710;6.398;2023-03-01T07:58:38;-0.40;99.90
52125;DHT22;38119;52.710;6.398;2023-03-01T08:01:05;-0.70;99.90
52125;DHT22;38119;52.710;6.398;2023-03-01T08:03:31;-0.70;99.90
52125;DHT22;38119;52.710;6.398;2023-03-01T08:06:00;-0.70;99.90
52125;DHT22;38119;52.710;6.398;2023-03-01T08:08:25;-0.60;99.90
52125;DHT22;38119;52.710;6.398;2023-03-01T08:10:51;-0.60;99.90
52125;DHT22;38119;52.710;6.398;2023-03-01T08:13:17;-0.50;99.90
52125;DHT22;38119;52.710;6.398;2023-03-01T08:15:50;-0.50;99.90
52125;DHT22;38119;52.710;6.398;2023-03-01T08:18:17;-0.50;99.90
52125;DHT22;38119;52.710;6.398;2023-03-01T08:20:43;-0.40;99.90
52125;DHT22;38119;52.710;6.398;2023-03-01T08:23:09;-0.40;99.90
52125;DHT22;38119;52.710;6.398;2023-03-01T08:25:35;-0.40;99.90
52125;DHT22;38119;52.710;6.398;2023-03-01T08:28:01;-0.30;99.90
52125;DHT22;38119;52.710;6.398;2023-03-01T08:30:26;-0.30;99.90
52125;DHT22;38119;52.710;6.398;2023-03-01T08:32:52;-0.30;99.90
52125;DHT22;38119;52.710;6.398;2023-03-01T08:35:18;-0.20;99.90
52125;DHT22;38119;52.710;6.398;2023-03-01T08:37:44;-0.20;99.90
52125;DHT22;38119;52.710;6.398;2023-03-01T08:40:10;-0.10;99.90
52125;DHT22;38119;52.710;6.398;2023-03-01T08:42:37;-0.10;99.90
52125;DHT22;38119;52.710;6.398;2023-03-01T08:45:06;0.00;99.90
52125;DHT22;38119;52.710;6.398;2023-03-01T08:47:32;0.00;99.90
52125;DHT22;38119;52.710;6.398;2023-03-01T08:49:59;0.10;99.90
52125;DHT22;38119;52.710;6.398;2023-03-01T08:52:25;0.10;99.90
52125;DHT22;38119;52.710;6.398;2023-03-01T08:54:51;0.20;99.90
52125;DHT22;38119;52.710;6.398;2023-03-01T08:57:17;0.20;99.90
52125;DHT22;38119;52.710;6.398;2023-03-01T08:59:42;0.30;99.90
52125;DHT22;38119;52.710;6.398;2023-03-01T09:02:18;0.30;99.90
52125;DHT22;38119;52.710;6.398;2023-03-01T09:04:44;0.40;99.90
52125;DHT22;38119;52.710;6.398;2023-03-01T09:07:10;0.40;99.90
52125;DHT22;38119;52.710;6.398;2023-03-01T09:09:36;0.50;99.90
52125;DHT22;38119;52.710;6.398;2023-03-01T09:12:03;0.60;99.90
52125;DHT22;38119;52.710;6.398;2023-03-01T09:14:29;0.70;99.90
52125;DHT22;38119;52.710;6.398;2023-03-01T09:16:55;0.80;99.90
52125;DHT22;38119;52.710;6.398;2023-03-01T09:19:20;0.80;99.90
52125;DHT22;38119;52.710;6.398;2023-03-01T09:21:46;1.00;99.90
52125;DHT22;38119;52.710;6.398;2023-03-01T09:24:21;1.00;99.90
52125;DHT22;38119;52.710;6.398;2023-03-01T09:26:47;1.10;99.90
52125;DHT22;38119;52.710;6.398;2023-03-01T09:29:14;1.10;99.90
52125;DHT22;38119;52.710;6.398;2023-03-01T09:31:40;1.20;99.90
52125;DHT22;38119;52.710;6.398;2023-03-01T09:34:06;1.30;99.90
52125;DHT22;38119;52.710;6.398;2023-03-01T09:36:32;1.30;99.90
52125;DHT22;38119;52.710;6.398;2023-03-01T09:38:58;1.40;99.90
52125;DHT22;38119;52.710;6.398;2023-03-01T09:44:31;1.60;99.90
52125;DHT22;38119;52.710;6.398;2023-03-01T09:46:59;1.70;99.90
52125;DHT22;38119;52.710;6.398;2023-03-01T09:49:39;1.80;99.90
52125;DHT22;38119;52.710;6.398;2023-03-01T09:54:40;2.00;99.90
52125;DHT22;38119;52.710;6.398;2023-03-01T09:57:17;2.10;99.90
52125;DHT22;38119;52.710;6.398;2023-03-01T09:59:56;2.20;99.90
52125;DHT22;38119;52.710;6.398;2023-03-01T10:02:45;2.20;99.90
52125;DHT22;38119;52.710;6.398;2023-03-01T10:08:06;2.40;99.90
52125;DHT22;38119;52.710;6.398;2023-03-01T10:10:38;2.50;99.90
52125;DHT22;38119;52.710;6.398;2023-03-01T10:13:13;2.50;99.90
52125;DHT22;38119;52.710;6.398;2023-03-01T10:15:47;2.60;99.90
52125;DHT22;38119;52.710;6.398;2023-03-01T10:18:17;2.70;99.90
52125;DHT22;38119;52.710;6.398;2023-03-01T10:20:57;2.80;99.90
52125;DHT22;38119;52.710;6.398;2023-03-01T10:23:25;2.90;99.90
52125;DHT22;38119;52.710;6.398;2023-03-01T10:31:20;3.20;99.90
52125;DHT22;38119;52.710;6.398;2023-03-01T10:33:47;3.30;99.90
52125;DHT22;38119;52.710;6.398;2023-03-01T10:36:17;3.40;99.90
52125;DHT22;38119;52.710;6.398;2023-03-01T10:38:52;3.50;99.90
52125;DHT22;38119;52.710;6.398;2023-03-01T10:41:20;3.70;99.90
52125;DHT22;38119;52.710;6.398;2023-03-01T10:43:58;3.80;99.90
52125;DHT22;38119;52.710;6.398;2023-03-01T10:46:34;4.00;99.90
52125;DHT22;38119;52.710;6.398;2023-03-01T10:49:18;4.10;99.90
52125;DHT22;38119;52.710;6.398;2023-03-01T10:51:46;4.50;99.90
52125;DHT22;38119;52.710;6.398;2023-03-01T10:54:27;4.60;99.90
52125;DHT22;38119;52.710;6.398;2023-03-01T10:56:55;4.80;99.90
52125;DHT22;38119;52.710;6.398;2023-03-01T11:02:16;5.30;99.90
52125;DHT22;38119;52.710;6.398;2023-03-01T11:05:00;5.40;99.90
52125;DHT22;38119;52.710;6.398;2023-03-01T11:07:27;5.60;99.90
52125;DHT22;38119;52.710;6.398;2023-03-01T11:09:53;5.80;99.90
52125;DHT22;38119;52.710;6.398;2023-03-01T11:12:19;6.00;99.90
52125;DHT22;38119;52.710;6.398;2023-03-01T11:14:48;6.20;99.90
52125;DHT22;38119;52.710;6.398;2023-03-01T11:17:24;6.40;99.90
52125;DHT22;38119;52.710;6.398;2023-03-01T11:22:55;6.80;99.90
52125;DHT22;38119;52.710;6.398;2023-03-01T11:25:28;7.00;99.90
52125;DHT22;38119;52.710;6.398;2023-03-01T11:27:55;7.10;99.90
52125;DHT22;38119;52.710;6.398;2023-03-01T11:30:29;7.20;99.90
52125;DHT22;38119;52.710;6.398;2023-03-01T11:33:12;7.30;99.90
52125;DHT22;38119;52.710;6.398;2023-03-01T11:35:45;7.40;99.90
52125;DHT22;38119;52.710;6.398;2023-03-01T11:38:23;7.40;99.90
52125;DHT22;38119;52.710;6.398;2023-03-01T11:41:06;7.50;99.90
52125;DHT22;38119;52.710;6.398;2023-03-01T11:52:14;7.70;99.90
52125;DHT22;38119;52.710;6.398;2023-03-01T11:57:55;7.80;99.90
52125;DHT22;38119;52.710;6.398;2023-03-01T12:00:30;7.80;99.90
52125;DHT22;38119;52.710;6.398;2023-03-01T12:08:35;8.00;99.90
52125;DHT22;38119;52.710;6.398;2023-03-01T12:19:33;8.20;99.90
52125;DHT22;38119;52.710;6.398;2023-03-01T12:44:33;8.30;99.90
52125;DHT22;38119;52.710;6.398;2023-03-01T12:49:57;8.30;99.90
52125;DHT22;38119;52.710;6.398;2023-03-01T12:52:44;8.30;99.90
52125;DHT22;38119;52.710;6.398;2023-03-01T12:55:31;8.30;99.90
52125;DHT22;38119;52.710;6.398;2023-03-01T13:01:16;8.50;99.90
52125;DHT22;38119;52.710;6.398;2023-03-01T13:04:12;8.60;99.90
52125;DHT22;38119;52.710;6.398;2023-03-01T13:09:30;8.60;99.90
52125;DHT22;38119;52.710;6.398;2023-03-01T13:11:58;8.60;99.90
52125;DHT22;38119;52.710;6.398;2023-03-01T13:16:50;8.70;99.90
52125;DHT22;38119;52.710;6.398;2023-03-01T13:19:21;8.70;99.90
52125;DHT22;38119;52.710;6.398;2023-03-01T13:21:49;8.80;99.90
52125;DHT22;38119;52.710;6.398;2023-03-01T13:24:27;8.90;99.90
52125;DHT22;38119;52.710;6.398;2023-03-01T13:32:24;8.90;99.90
52125;DHT22;38119;52.710;6.398;2023-03-01T13:34:55;9.00;99.90
52125;DHT22;38119;52.710;6.398;2023-03-01T13:37:32;9.00;99.90
52125;DHT22;38119;52.710;6.398;2023-03-01T13:40:01;9.00;99.90
52125;DHT22;38119;52.710;6.398;2023-03-01T13:42:38;8.90;99.90
52125;DHT22;38119;52.710;6.398;2023-03-01T13:47:46;8.90;99.90
52125;DHT22;38119;52.710;6.398;2023-03-01T13:50:24;8.90;99.90
52125;DHT22;38119;52.710;6.398;2023-03-01T13:52:59;8.90;99.90
52125;DHT22;38119;52.710;6.398;2023-03-01T13:55:43;8.90;99.90
52125;DHT22;38119;52.710;6.398;2023-03-01T13:58:19;8.90;99.90
52125;DHT22;38119;52.710;6.398;2023-03-01T14:00:46;8.80;99.90
52125;DHT22;38119;52.710;6.398;2023-03-01T14:03:18;8.80;99.90
52125;DHT22;38119;52.710;6.398;2023-03-01T14:06:14;8.80;99.90
52125;DHT22;38119;52.710;6.398;2023-03-01T14:08:41;8.80;99.90
52125;DHT22;38119;52.710;6.398;2023-03-01T14:11:20;8.80;99.90
52125;DHT22;38119;52.710;6.398;2023-03-01T14:19:28;8.80;99.90
52125;DHT22;38119;52.710;6.398;2023-03-01T14:24:51;8.80;99.90
52125;DHT22;38119;52.710;6.398;2023-03-01T14:27:18;8.70;99.90
52125;DHT22;38119;52.710;6.398;2023-03-01T14:29:54;8.70;99.90
52125;DHT22;38119;52.710;6.398;2023-03-01T14:32:24;8.70;99.90
52125;DHT22;38119;52.710;6.398;2023-03-01T14:34:51;8.70;99.90
52125;DHT22;38119;52.710;6.398;2023-03-01T14:39:45;8.70;99.90
52125;DHT22;38119;52.710;6.398;2023-03-01T14:42:12;8.70;99.90
52125;DHT22;38119;52.710;6.398;2023-03-01T14:44:42;8.70;99.90
52125;DHT22;38119;52.710;6.398;2023-03-01T14:47:15;8.60;99.90
52125;DHT22;38119;52.710;6.398;2023-03-01T14:49:43;8.70;99.90
52125;DHT22;38119;52.710;6.398;2023-03-01T14:52:24;8.70;99.90
52125;DHT22;38119;52.710;6.398;2023-03-01T14:54:54;8.60;99.90
52125;DHT22;38119;52.710;6.398;2023-03-01T14:57:22;8.60;99.90
52125;DHT22;38119;52.710;6.398;2023-03-01T14:59:49;8.50;99.90
52125;DHT22;38119;52.710;6.398;2023-03-01T15:02:18;8.70;99.90
52125;DHT22;38119;52.710;6.398;2023-03-01T15:04:59;8.50;99.90
52125;DHT22;38119;52.710;6.398;2023-03-01T15:07:36;8.40;99.90
52125;DHT22;38119;52.710;6.398;2023-03-01T15:10:06;8.40;99.90
52125;DHT22;38119;52.710;6.398;2023-03-01T15:12:37;8.40;99.90
52125;DHT22;38119;52.710;6.398;2023-03-01T15:18:00;8.30;99.90
52125;DHT22;38119;52.710;6.398;2023-03-01T15:20:28;8.30;99.90
52125;DHT22;38119;52.710;6.398;2023-03-01T15:22:56;8.30;99.90
52125;DHT22;38119;52.710;6.398;2023-03-01T15:25:25;8.20;99.90
52125;DHT22;38119;52.710;6.398;2023-03-01T15:27:53;8.20;99.90
52125;DHT22;38119;52.710;6.398;2023-03-01T15:30:34;8.10;99.90
52125;DHT22;38119;52.710;6.398;2023-03-01T15:35:54;8.00;99.90
52125;DHT22;38119;52.710;6.398;2023-03-01T15:41:06;7.90;99.90
52125;DHT22;38119;52.710;6.398;2023-03-01T15:43:46;7.90;99.90
52125;DHT22;38119;52.710;6.398;2023-03-01T15:46:25;7.90;99.90
52125;DHT22;38119;52.710;6.398;2023-03-01T15:48:54;7.80;99.90
52125;DHT22;38119;52.710;6.398;2023-03-01T15:51:41;7.80;99.90
52125;DHT22;38119;52.710;6.398;2023-03-01T15:54:18;7.80;99.90
52125;DHT22;38119;52.710;6.398;2023-03-01T15:56:44;7.70;99.90
52125;DHT22;38119;52.710;6.398;2023-03-01T15:59:11;7.70;99.90
52125;DHT22;38119;52.710;6.398;2023-03-01T16:01:38;7.70;99.90
52125;DHT22;38119;52.710;6.398;2023-03-01T16:04:04;7.70;99.90
52125;DHT22;38119;52.710;6.398;2023-03-01T16:06:30;7.60;99.90
52125;DHT22;38119;52.710;6.398;2023-03-01T16:08:55;7.60;99.90
52125;DHT22;38119;52.710;6.398;2023-03-01T16:11:22;7.60;99.90
52125;DHT22;38119;52.710;6.398;2023-03-01T16:13:48;7.60;99.90
52125;DHT22;38119;52.710;6.398;2023-03-01T16:16:15;7.50;99.90
52125;DHT22;38119;52.710;6.398;2023-03-01T16:18:47;7.50;99.90
52125;DHT22;38119;52.710;6.398;2023-03-01T16:21:16;7.40;99.90
52125;DHT22;38119;52.710;6.398;2023-03-01T16:23:44;7.40;99.90
52125;DHT22;38119;52.710;6.398;2023-03-01T16:26:10;7.30;99.90
52125;DHT22;38119;52.710;6.398;2023-03-01T16:28:36;7.20;99.90
52125;DHT22;38119;52.710;6.398;2023-03-01T16:31:01;7.20;99.90
52125;DHT22;38119;52.710;6.398;2023-03-01T16:33:27;7.10;99.90
52125;DHT22;38119;52.710;6.398;2023-03-01T16:35:53;7.00;99.90
52125;DHT22;38119;52.710;6.398;2023-03-01T16:38:18;6.90;99.90
52125;DHT22;38119;52.710;6.398;2023-03-01T16:40:49;6.90;99.90
52125;DHT22;38119;52.710;6.398;2023-03-01T16:43:15;6.90;99.90
52125;DHT22;38119;52.710;6.398;2023-03-01T16:45:41;6.80;99.90
52125;DHT22;38119;52.710;6.398;2023-03-01T16:48:10;6.70;99.90
52125;DHT22;38119;52.710;6.398;2023-03-01T16:50:35;6.30;99.90
52125;DHT22;38119;52.710;6.398;2023-03-01T16:53:01;6.60;99.90
52125;DHT22;38119;52.710;6.398;2023-03-01T16:55:27;6.50;99.90
52125;DHT22;38119;52.710;6.398;2023-03-01T16:57:53;6.50;99.90
52125;DHT22;38119;52.710;6.398;2023-03-01T17:00:19;6.40;99.90
52125;DHT22;38119;52.710;6.398;2023-03-01T17:02:45;6.30;99.90
52125;DHT22;38119;52.710;6.398;2023-03-01T17:05:11;6.30;99.90
52125;DHT22;38119;52.710;6.398;2023-03-01T17:07:38;6.20;99.90
52125;DHT22;38119;52.710;6.398;2023-03-01T17:10:06;6.20;99.90
52125;DHT22;38119;52.710;6.398;2023-03-01T17:12:34;6.10;99.90
52125;DHT22;38119;52.710;6.398;2023-03-01T17:15:00;6.00;99.90
52125;DHT22;38119;52.710;6.398;2023-03-01T17:17:26;6.00;99.90
52125;DHT22;38119;52.710;6.398;2023-03-01T17:19:52;5.90;99.90
52125;DHT22;38119;52.710;6.398;2023-03-01T17:22:18;5.80;99.90
52125;DHT22;38119;52.710;6.398;2023-03-01T17:24:44;5.80;99.90
52125;DHT22;38119;52.710;6.398;2023-03-01T17:27:11;5.70;99.90
52125;DHT22;38119;52.710;6.398;2023-03-01T17:29:38;5.70;99.90
52125;DHT22;38119;52.710;6.398;2023-03-01T17:32:05;5.70;99.90
52125;DHT22;38119;52.710;6.398;2023-03-01T17:34:31;5.60;99.90
52125;DHT22;38119;52.710;6.398;2023-03-01T17:36:57;5.50;99.90
52125;DHT22;38119;52.710;6.398;2023-03-01T17:39:23;5.50;99.90
52125;DHT22;38119;52.710;6.398;2023-03-01T17:41:56;5.40;99.90
52125;DHT22;38119;52.710;6.398;2023-03-01T17:44:22;5.40;99.90
52125;DHT22;38119;52.710;6.398;2023-03-01T17:46:47;5.30;99.90
52125;DHT22;38119;52.710;6.398;2023-03-01T17:49:13;5.30;99.90